sensor_id;sensor_type;location;lat;lon;timestamp;pressure;altitude;pressure_sealevel;temperature
71463;BMP180;59266;52.608;13.260;2024-03-22T00:00:11;101725.00;;;8.40
71463;BMP180;59266;52.608;13.260;2024-03-22T00:02:40;101720.00;;;8.40
71463;BMP180;59266;52.608;13.260;2024-03-22T00:05:06;101718.00;;;8.40
71463;BMP180;59266;52.608;13.260;2024-03-22T00:07:31;101720.00;;;8.20
71463;BMP180;59266;52.608;13.260;2024-03-22T00:09:57;101721.00;;;8.10
71463;BMP180;59266;52.608;13.260;2024-03-22T00:12:22;101718.00;;;8.10
71463;BMP180;59266;52.608;13.260;2024-03-22T00:14:48;101725.00;;;8.20
71463;BMP180;59266;52.608;13.260;2024-03-22T00:17:14;101713.00;;;8.20
71463;BMP180;59266;52.608;13.260;2024-03-22T00:19:39;101706.00;;;8.10
71463;BMP180;59266;52.608;13.260;2024-03-22T00:22:05;101702.00;;;8.10
71463;BMP180;59266;52.608;13.260;2024-03-22T00:24:31;101689.00;;;8.10
71463;BMP180;59266;52.608;13.260;2024-03-22T00:26:56;101686.00;;;8.20
71463;BMP180;59266;52.608;13.260;2024-03-22T00:29:22;101691.00;;;8.30
71463;BMP180;59266;52.608;13.260;2024-03-22T00:31:48;101687.00;;;8.30
71463;BMP180;59266;52.608;13.260;2024-03-22T00:34:13;101690.00;;;8.40
71463;BMP180;59266;52.608;13.260;2024-03-22T00:36:39;101687.00;;;8.30
71463;BMP180;59266;52.608;13.260;2024-03-22T00:39:04;101683.00;;;8.30
71463;BMP180;59266;52.608;13.260;2024-03-22T00:41:30;101688.00;;;8.30
71463;BMP180;59266;52.608;13.260;2024-03-22T00:43:57;101682.00;;;8.50
71463;BMP180;59266;52.608;13.260;2024-03-22T00:46:23;101681.00;;;8.50
71463;BMP180;59266;52.608;13.260;2024-03-22T00:48:48;101674.00;;;8.50
71463;BMP180;59266;52.608;13.260;2024-03-22T00:51:14;101680.00;;;8.50
71463;BMP180;59266;52.608;13.260;2024-03-22T00:53:40;101664.00;;;8.50
71463;BMP180;59266;52.608;13.260;2024-03-22T00:56:05;101660.00;;;8.30
71463;BMP180;59266;52.608;13.260;2024-03-22T00:58:31;101658.00;;;8.20
71463;BMP180;59266;52.608;13.260;2024-03-22T01:00:56;101653.00;;;8.20
71463;BMP180;59266;52.608;13.260;2024-03-22T01:03:22;101652.00;;;8.00
71463;BMP180;59266;52.608;13.260;2024-03-22T01:05:48;101655.00;;;8.10
71463;BMP180;59266;52.608;13.260;2024-03-22T01:08:14;101656.00;;;8.00
71463;BMP180;59266;52.608;13.260;2024-03-22T01:10:40;101647.00;;;8.00
71463;BMP180;59266;52.608;13.260;2024-03-22T01:13:05;101634.00;;;8.10
71463;BMP180;59266;52.608;13.260;2024-03-22T01:15:31;101636.00;;;8.00
71463;BMP180;59266;52.608;13.260;2024-03-22T01:17:57;101641.00;;;8.00
71463;BMP180;59266;52.608;13.260;2024-03-22T01:20:49;101643.00;;;8.10
71463;BMP180;59266;52.608;13.260;2024-03-22T01:23:14;101638.00;;;8.00
71463;BMP180;59266;52.608;13.260;2024-03-22T01:25:40;101634.00;;;8.00
71463;BMP180;59266;52.608;13.260;2024-03-22T01:28:05;101629.00;;;8.00
71463;BMP180;59266;52.608;13.260;2024-03-22T01:30:32;101629.00;;;8.00
71463;BMP180;59266;52.608;13.260;2024-03-22T01:32:59;101624.00;;;8.10
71463;BMP180;59266;52.608;13.260;2024-03-22T01:35:25;101631.00;;;8.00
71463;BMP180;59266;52.608;13.260;2024-03-22T01:37:50;101627.00;;;8.10
71463;BMP180;59266;52.608;13.260;2024-03-22T01:40:16;101621.00;;;8.10
71463;BMP180;59266;52.608;13.260;2024-03-22T01:42:42;101605.00;;;8.10
71463;BMP180;59266;52.608;13.260;2024-03-22T01:45:07;101622.00;;;8.10
71463;BMP180;59266;52.608;13.260;2024-03-22T01:47:33;101615.00;;;8.00
71463;BMP180;59266;52.608;13.260;2024-03-22T01:50:00;101620.00;;;8.00
71463;BMP180;59266;52.608;13.260;2024-03-22T01:52:26;101622.00;;;8.20
71463;BMP180;59266;52.608;13.260;2024-03-22T01:54:52;101620.00;;;8.30
71463;BMP180;59266;52.608;13.260;2024-03-22T01:57:18;101612.00;;;8.20
71463;BMP180;59266;52.608;13.260;2024-03-22T01:59:46;101605.00;;;8.20
71463;BMP180;59266;52.608;13.260;2024-03-22T02:02:13;101614.00;;;8.20
71463;BMP180;59266;52.608;13.260;2024-03-22T02:04:39;101615.00;;;8.20
71463;BMP180;59266;52.608;13.260;2024-03-22T02:07:04;101604.00;;;8.30
71463;BMP180;59266;52.608;13.260;2024-03-22T02:09:30;101603.00;;;8.30
71463;BMP180;59266;52.608;13.260;2024-03-22T02:11:56;101594.00;;;8.20
71463;BMP180;59266;52.608;13.260;2024-03-22T02:14:21;101597.00;;;8.10
71463;BMP180;59266;52.608;13.260;2024-03-22T02:16:47;101587.00;;;8.20
71463;BMP180;59266;52.608;13.260;2024-03-22T02:19:12;101579.00;;;8.30
71463;BMP180;59266;52.608;13.260;2024-03-22T02:21:39;101578.00;;;8.30
71463;BMP180;59266;52.608;13.260;2024-03-22T02:24:05;101571.00;;;8.30
71463;BMP180;59266;52.608;13.260;2024-03-22T02:26:31;101565.00;;;8.30
71463;BMP180;59266;52.608;13.260;2024-03-22T02:28:56;101556.00;;;8.30
71463;BMP180;59266;52.608;13.260;2024-03-22T02:31:22;101558.00;;;8.20
71463;BMP180;59266;52.608;13.260;2024-03-22T02:33:48;101554.00;;;8.30
71463;BMP180;59266;52.608;13.260;2024-03-22T02:36:13;101539.00;;;8.30
71463;BMP180;59266;52.608;13.260;2024-03-22T02:38:39;101542.00;;;8.40
71463;BMP180;59266;52.608;13.260;2024-03-22T02:41:04;101545.00;;;8.30
71463;BMP180;59266;52.608;13.260;2024-03-22T02:43:30;101543.00;;;8.20
71463;BMP180;59266;52.608;13.260;2024-03-22T02:45:56;101546.00;;;8.20
71463;BMP180;59266;52.608;13.260;2024-03-22T02:48:21;101528.00;;;8.40
71463;BMP180;59266;52.608;13.260;2024-03-22T02:50:48;101530.00;;;8.50
71463;BMP180;59266;52.608;13.260;2024-03-22T02:53:14;101529.00;;;8.30
71463;BMP180;59266;52.608;13.260;2024-03-22T02:55:40;101521.00;;;8.30
71463;BMP180;59266;52.608;13.260;2024-03-22T02:58:06;101520.00;;;8.40
71463;BMP180;59266;52.608;13.260;2024-03-22T03:00:36;101514.00;;;8.40
71463;BMP180;59266;52.608;13.260;2024-03-22T03:03:03;101518.00;;;8.30
71463;BMP180;59266;52.608;13.260;2024-03-22T03:05:28;101516.00;;;8.30
71463;BMP180;59266;52.608;13.260;2024-03-22T03:07:54;101508.00;;;8.20
71463;BMP180;59266;52.608;13.260;2024-03-22T03:10:20;101502.00;;;8.20
71463;BMP180;59266;52.608;13.260;2024-03-22T03:12:46;101508.00;;;8.20
71463;BMP180;59266;52.608;13.260;2024-03-22T03:15:11;101490.00;;;8.20
71463;BMP180;59266;52.608;13.260;2024-03-22T03:17:37;101492.00;;;8.30
71463;BMP180;59266;52.608;13.260;2024-03-22T03:20:03;101480.00;;;8.30
71463;BMP180;59266;52.608;13.260;2024-03-22T03:22:34;101473.00;;;8.20
71463;BMP180;59266;52.608;13.260;2024-03-22T03:25:00;101474.00;;;8.20
71463;BMP180;59266;52.608;13.260;2024-03-22T03:27:25;101472.00;;;8.20
71463;BMP180;59266;52.608;13.260;2024-03-22T03:29:51;101471.00;;;8.30
71463;BMP180;59266;52.608;13.260;2024-03-22T03:32:17;101462.00;;;8.20
71463;BMP180;59266;52.608;13.260;2024-03-22T03:34:42;101473.00;;;8.20
71463;BMP180;59266;52.608;13.260;2024-03-22T03:37:08;101462.00;;;8.30
71463;BMP180;59266;52.608;13.260;2024-03-22T03:39:34;101454.00;;;8.30
71463;BMP180;59266;52.608;13.260;2024-03-22T03:41:59;101455.00;;;8.40
71463;BMP180;59266;52.608;13.260;2024-03-22T03:44:25;101447.00;;;8.50
71463;BMP180;59266;52.608;13.260;2024-03-22T03:46:50;101440.00;;;8.50
71463;BMP180;59266;52.608;13.260;2024-03-22T03:49:16;101433.00;;;8.50
71463;BMP180;59266;52.608;13.260;2024-03-22T03:51:45;101428.00;;;8.40
71463;BMP180;59266;52.608;13.260;2024-03-22T03:54:10;101429.00;;;8.40
71463;BMP180;59266;52.608;13.260;2024-03-22T03:56:36;101428.00;;;8.50
71463;BMP180;59266;52.608;13.260;2024-03-22T03:59:02;101426.00;;;8.40
71463;BMP180;59266;52.608;13.260;2024-03-22T04:01:27;101417.00;;;8.40
71463;BMP180;59266;52.608;13.260;2024-03-22T04:03:53;101412.00;;;8.30
71463;BMP180;59266;52.608;13.260;2024-03-22T04:06:18;101411.00;;;8.50
71463;BMP180;59266;52.608;13.260;2024-03-22T04:08:45;101404.00;;;8.40
71463;BMP180;59266;52.608;13.260;2024-03-22T04:11:10;101409.00;;;8.30
71463;BMP180;59266;52.608;13.260;2024-03-22T04:13:36;101408.00;;;8.40
71463;BMP180;59266;52.608;13.260;2024-03-22T04:16:02;101409.00;;;8.50
71463;BMP180;59266;52.608;13.260;2024-03-22T04:18:28;101396.00;;;8.60
71463;BMP180;59266;52.608;13.260;2024-03-22T04:20:54;101398.00;;;8.60
71463;BMP180;59266;52.608;13.260;2024-03-22T04:23:21;101397.00;;;8.70
71463;BMP180;59266;52.608;13.260;2024-03-22T04:25:57;101390.00;;;8.50
71463;BMP180;59266;52.608;13.260;2024-03-22T04:28:26;101380.00;;;8.60
71463;BMP180;59266;52.608;13.260;2024-03-22T04:33:28;101383.00;;;8.60
71463;BMP180;59266;52.608;13.260;2024-03-22T04:35:55;101370.00;;;8.70
71463;BMP180;59266;52.608;13.260;2024-03-22T04:38:22;101366.00;;;8.70
71463;BMP180;59266;52.608;13.260;2024-03-22T04:40:48;101363.00;;;8.80
71463;BMP180;59266;52.608;13.260;2024-03-22T04:43:14;101364.00;;;8.70
71463;BMP180;59266;52.608;13.260;2024-03-22T04:45:42;101358.00;;;8.70
71463;BMP180;59266;52.608;13.260;2024-03-22T04:48:08;101356.00;;;8.60
71463;BMP180;59266;52.608;13.260;2024-03-22T04:50:35;101357.00;;;8.60
71463;BMP180;59266;52.608;13.260;2024-03-22T04:53:01;101347.00;;;8.80
71463;BMP180;59266;52.608;13.260;2024-03-22T04:55:27;101355.00;;;8.80
71463;BMP180;59266;52.608;13.260;2024-03-22T04:57:53;101344.00;;;8.70
71463;BMP180;59266;52.608;13.260;2024-03-22T05:00:19;101342.00;;;8.80
71463;BMP180;59266;52.608;13.260;2024-03-22T05:02:45;101355.00;;;8.70
71463;BMP180;59266;52.608;13.260;2024-03-22T05:05:11;101347.00;;;8.90
71463;BMP180;59266;52.608;13.260;2024-03-22T05:07:37;101361.00;;;8.80
71463;BMP180;59266;52.608;13.260;2024-03-22T05:10:03;101355.00;;;8.80
71463;BMP180;59266;52.608;13.260;2024-03-22T05:12:29;101348.00;;;8.80
71463;BMP180;59266;52.608;13.260;2024-03-22T05:14:57;101351.00;;;8.70
71463;BMP180;59266;52.608;13.260;2024-03-22T05:17:22;101340.00;;;8.70
71463;BMP180;59266;52.608;13.260;2024-03-22T05:19:48;101339.00;;;8.60
71463;BMP180;59266;52.608;13.260;2024-03-22T05:22:19;101330.00;;;8.60
71463;BMP180;59266;52.608;13.260;2024-03-22T05:24:45;101332.00;;;8.60
71463;BMP180;59266;52.608;13.260;2024-03-22T05:27:11;101339.00;;;8.80
71463;BMP180;59266;52.608;13.260;2024-03-22T05:29:38;101323.00;;;8.80
71463;BMP180;59266;52.608;13.260;2024-03-22T05:32:04;101322.00;;;8.90
71463;BMP180;59266;52.608;13.260;2024-03-22T05:34:30;101321.00;;;9.00
71463;BMP180;59266;52.608;13.260;2024-03-22T05:36:55;101318.00;;;8.90
71463;BMP180;59266;52.608;13.260;2024-03-22T05:39:21;101309.00;;;9.10
71463;BMP180;59266;52.608;13.260;2024-03-22T05:41:46;101306.00;;;9.10
71463;BMP180;59266;52.608;13.260;2024-03-22T05:44:12;101306.00;;;9.20
71463;BMP180;59266;52.608;13.260;2024-03-22T05:46:38;101296.00;;;9.20
71463;BMP180;59266;52.608;13.260;2024-03-22T05:49:03;101286.00;;;9.20
71463;BMP180;59266;52.608;13.260;2024-03-22T05:51:29;101280.00;;;9.20
71463;BMP180;59266;52.608;13.260;2024-03-22T05:53:57;101283.00;;;9.10
71463;BMP180;59266;52.608;13.260;2024-03-22T05:56:23;101284.00;;;9.30
71463;BMP180;59266;52.608;13.260;2024-03-22T05:58:49;101287.00;;;9.30
71463;BMP180;59266;52.608;13.260;2024-03-22T06:01:14;101281.00;;;9.40
71463;BMP180;59266;52.608;13.260;2024-03-22T06:03:40;101280.00;;;9.60
71463;BMP180;59266;52.608;13.260;2024-03-22T06:06:05;101276.00;;;9.50
71463;BMP180;59266;52.608;13.260;2024-03-22T06:08:31;101277.00;;;9.40
71463;BMP180;59266;52.608;13.260;2024-03-22T06:11:00;101278.00;;;9.30
71463;BMP180;59266;52.608;13.260;2024-03-22T06:13:25;101276.00;;;9.40
71463;BMP180;59266;52.608;13.260;2024-03-22T06:15:51;101266.00;;;9.30
71463;BMP180;59266;52.608;13.260;2024-03-22T06:18:16;101257.00;;;9.50
71463;BMP180;59266;52.608;13.260;2024-03-22T06:20:43;101257.00;;;9.50
71463;BMP180;59266;52.608;13.260;2024-03-22T06:23:09;101262.00;;;9.50
71463;BMP180;59266;52.608;13.260;2024-03-22T06:25:34;101256.00;;;9.50
71463;BMP180;59266;52.608;13.260;2024-03-22T06:28:00;101253.00;;;9.50
71463;BMP180;59266;52.608;13.260;2024-03-22T06:30:26;101257.00;;;9.60
71463;BMP180;59266;52.608;13.260;2024-03-22T06:32:53;101257.00;;;9.50
71463;BMP180;59266;52.608;13.260;2024-03-22T06:35:18;101254.00;;;9.60
71463;BMP180;59266;52.608;13.260;2024-03-22T06:37:44;101251.00;;;9.70
71463;BMP180;59266;52.608;13.260;2024-03-22T06:40:24;101246.00;;;9.60
71463;BMP180;59266;52.608;13.260;2024-03-22T06:42:57;101245.00;;;9.60
71463;BMP180;59266;52.608;13.260;2024-03-22T06:45:26;101248.00;;;9.60
71463;BMP180;59266;52.608;13.260;2024-03-22T06:47:58;101238.00;;;9.70
71463;BMP180;59266;52.608;13.260;2024-03-22T06:50:27;101237.00;;;9.60
71463;BMP180;59266;52.608;13.260;2024-03-22T06:52:56;101245.00;;;9.80
71463;BMP180;59266;52.608;13.260;2024-03-22T06:55:22;101233.00;;;9.90
71463;BMP180;59266;52.608;13.260;2024-03-22T06:57:48;101232.00;;;9.90
71463;BMP180;59266;52.608;13.260;2024-03-22T07:00:15;101236.00;;;9.80
71463;BMP180;59266;52.608;13.260;2024-03-22T07:02:42;101232.00;;;9.90
71463;BMP180;59266;52.608;13.260;2024-03-22T07:05:08;101229.00;;;10.10
71463;BMP180;59266;52.608;13.260;2024-03-22T07:07:40;101230.00;;;10.20
71463;BMP180;59266;52.608;13.260;2024-03-22T07:10:06;101222.00;;;10.00
71463;BMP180;59266;52.608;13.260;2024-03-22T07:12:32;101224.00;;;10.20
71463;BMP180;59266;52.608;13.260;2024-03-22T07:15:02;101214.00;;;10.20
71463;BMP180;59266;52.608;13.260;2024-03-22T07:17:28;101222.00;;;10.20
71463;BMP180;59266;52.608;13.260;2024-03-22T07:19:54;101228.00;;;10.20
71463;BMP180;59266;52.608;13.260;2024-03-22T07:22:20;101231.00;;;10.20
71463;BMP180;59266;52.608;13.260;2024-03-22T07:24:46;101220.00;;;10.30
71463;BMP180;59266;52.608;13.260;2024-03-22T07:27:13;101224.00;;;10.40
71463;BMP180;59266;52.608;13.260;2024-03-22T07:29:40;101225.00;;;10.30
71463;BMP180;59266;52.608;13.260;2024-03-22T07:32:06;101217.00;;;10.40
71463;BMP180;59266;52.608;13.260;2024-03-22T07:34:32;101225.00;;;10.50
71463;BMP180;59266;52.608;13.260;2024-03-22T07:36:57;101226.00;;;10.50
71463;BMP180;59266;52.608;13.260;2024-03-22T07:39:23;101217.00;;;10.80
71463;BMP180;59266;52.608;13.260;2024-03-22T07:41:49;101209.00;;;10.80
71463;BMP180;59266;52.608;13.260;2024-03-22T07:44:15;101208.00;;;10.80
71463;BMP180;59266;52.608;13.260;2024-03-22T07:46:43;101203.00;;;10.70
71463;BMP180;59266;52.608;13.260;2024-03-22T07:49:10;101209.00;;;10.80
71463;BMP180;59266;52.608;13.260;2024-03-22T07:51:36;101202.00;;;10.70
71463;BMP180;59266;52.608;13.260;2024-03-22T07:54:05;101199.00;;;11.00
71463;BMP180;59266;52.608;13.260;2024-03-22T07:56:35;101191.00;;;10.80
71463;BMP180;59266;52.608;13.260;2024-03-22T07:59:01;101192.00;;;10.90
71463;BMP180;59266;52.608;13.260;2024-03-22T08:01:26;101192.00;;;11.00
71463;BMP180;59266;52.608;13.260;2024-03-22T08:03:52;101188.00;;;10.90
71463;BMP180;59266;52.608;13.260;2024-03-22T08:06:18;101191.00;;;11.00
71463;BMP180;59266;52.608;13.260;2024-03-22T08:08:43;101189.00;;;11.10
71463;BMP180;59266;52.608;13.260;2024-03-22T08:11:12;101193.00;;;11.20
71463;BMP180;59266;52.608;13.260;2024-03-22T08:13:40;101189.00;;;11.30
71463;BMP180;59266;52.608;13.260;2024-03-22T08:16:06;101189.00;;;11.30
71463;BMP180;59266;52.608;13.260;2024-03-22T08:18:34;101188.00;;;11.30
71463;BMP180;59266;52.608;13.260;2024-03-22T08:21:01;101186.00;;;11.20
71463;BMP180;59266;52.608;13.260;2024-03-22T08:23:29;101171.00;;;11.10
71463;BMP180;59266;52.608;13.260;2024-03-22T08:25:58;101176.00;;;11.10
71463;BMP180;59266;52.608;13.260;2024-03-22T08:28:24;101172.00;;;11.40
71463;BMP180;59266;52.608;13.260;2024-03-22T08:30:49;101159.00;;;11.30
71463;BMP180;59266;52.608;13.260;2024-03-22T08:33:15;101151.00;;;11.30
71463;BMP180;59266;52.608;13.260;2024-03-22T08:35:40;101150.00;;;11.30
71463;BMP180;59266;52.608;13.260;2024-03-22T08:38:06;101145.00;;;11.60
71463;BMP180;59266;52.608;13.260;2024-03-22T08:40:40;101155.00;;;11.60
71463;BMP180;59266;52.608;13.260;2024-03-22T08:43:06;101137.00;;;11.80
71463;BMP180;59266;52.608;13.260;2024-03-22T08:45:35;101141.00;;;11.80
71463;BMP180;59266;52.608;13.260;2024-03-22T08:48:01;101124.00;;;11.80
71463;BMP180;59266;52.608;13.260;2024-03-22T08:50:27;101125.00;;;11.90
71463;BMP180;59266;52.608;13.260;2024-03-22T08:52:53;101127.00;;;11.90
71463;BMP180;59266;52.608;13.260;2024-03-22T08:55:18;101139.00;;;12.20
71463;BMP180;59266;52.608;13.260;2024-03-22T08:57:44;101124.00;;;12.10
71463;BMP180;59266;52.608;13.260;2024-03-22T09:00:10;101122.00;;;12.10
71463;BMP180;59266;52.608;13.260;2024-03-22T09:02:36;101112.00;;;12.10
71463;BMP180;59266;52.608;13.260;2024-03-22T09:05:02;101112.00;;;12.40
71463;BMP180;59266;52.608;13.260;2024-03-22T09:07:28;101108.00;;;12.40
71463;BMP180;59266;52.608;13.260;2024-03-22T09:09:53;101108.00;;;12.30
71463;BMP180;59266;52.608;13.260;2024-03-22T09:12:19;101095.00;;;12.40
71463;BMP180;59266;52.608;13.260;2024-03-22T09:14:45;101101.00;;;12.60
71463;BMP180;59266;52.608;13.260;2024-03-22T09:17:13;101096.00;;;12.60
71463;BMP180;59266;52.608;13.260;2024-03-22T09:19:39;101092.00;;;12.30
71463;BMP180;59266;52.608;13.260;2024-03-22T09:22:05;101088.00;;;12.70
71463;BMP180;59266;52.608;13.260;2024-03-22T09:24:31;101088.00;;;12.70
71463;BMP180;59266;52.608;13.260;2024-03-22T09:26:56;101079.00;;;12.60
71463;BMP180;59266;52.608;13.260;2024-03-22T09:29:22;101086.00;;;12.80
71463;BMP180;59266;52.608;13.260;2024-03-22T09:31:48;101089.00;;;13.00
71463;BMP180;59266;52.608;13.260;2024-03-22T09:34:16;101080.00;;;12.90
71463;BMP180;59266;52.608;13.260;2024-03-22T09:36:42;101078.00;;;13.30
71463;BMP180;59266;52.608;13.260;2024-03-22T09:39:07;101071.00;;;13.40
71463;BMP180;59266;52.608;13.260;2024-03-22T09:41:38;101083.00;;;13.40
71463;BMP180;59266;52.608;13.260;2024-03-22T09:44:06;101083.00;;;13.50
71463;BMP180;59266;52.608;13.260;2024-03-22T09:46:33;101078.00;;;13.40
71463;BMP180;59266;52.608;13.260;2024-03-22T09:49:01;101084.00;;;13.60
71463;BMP180;59266;52.608;13.260;2024-03-22T09:51:30;101076.00;;;13.30
71463;BMP180;59266;52.608;13.260;2024-03-22T09:53:56;101078.00;;;13.30
71463;BMP180;59266;52.608;13.260;2024-03-22T09:56:31;101077.00;;;13.30
71463;BMP180;59266;52.608;13.260;2024-03-22T09:59:00;101073.00;;;13.00
71463;BMP180;59266;52.608;13.260;2024-03-22T10:01:26;101079.00;;;13.30
71463;BMP180;59266;52.608;13.260;2024-03-22T10:03:56;101069.00;;;13.40
71463;BMP180;59266;52.608;13.260;2024-03-22T10:06:22;101052.00;;;13.30
71463;BMP180;59266;52.608;13.260;2024-03-22T10:08:48;101049.00;;;13.40
71463;BMP180;59266;52.608;13.260;2024-03-22T10:11:13;101049.00;;;13.40
71463;BMP180;59266;52.608;13.260;2024-03-22T10:13:42;101044.00;;;13.20
71463;BMP180;59266;52.608;13.260;2024-03-22T10:16:09;101043.00;;;13.40
71463;BMP180;59266;52.608;13.260;2024-03-22T10:18:35;101046.00;;;13.50
71463;BMP180;59266;52.608;13.260;2024-03-22T10:21:09;101044.00;;;13.40
71463;BMP180;59266;52.608;13.260;2024-03-22T10:23:35;101038.00;;;13.60
71463;BMP180;59266;52.608;13.260;2024-03-22T10:26:01;101036.00;;;13.80
71463;BMP180;59266;52.608;13.260;2024-03-22T10:28:27;101027.00;;;14.20
71463;BMP180;59266;52.608;13.260;2024-03-22T10:30:53;101033.00;;;14.30
71463;BMP180;59266;52.608;13.260;2024-03-22T10:33:19;101025.00;;;14.40
71463;BMP180;59266;52.608;13.260;2024-03-22T10:35:46;101022.00;;;14.40
71463;BMP180;59266;52.608;13.260;2024-03-22T10:38:12;101023.00;;;14.60
71463;BMP180;59266;52.608;13.260;2024-03-22T10:40:44;101025.00;;;14.70
71463;BMP180;59266;52.608;13.260;2024-03-22T10:43:13;101022.00;;;14.80
71463;BMP180;59266;52.608;13.260;2024-03-22T10:45:40;101017.00;;;15.10
71463;BMP180;59266;52.608;13.260;2024-03-22T10:48:09;101020.00;;;15.20
71463;BMP180;59266;52.608;13.260;2024-03-22T10:50:40;101012.00;;;15.80
71463;BMP180;59266;52.608;13.260;2024-03-22T10:53:23;101009.00;;;16.20
71463;BMP180;59266;52.608;13.260;2024-03-22T10:55:53;101012.00;;;15.60
71463;BMP180;59266;52.608;13.260;2024-03-22T10:58:24;101024.00;;;15.10
71463;BMP180;59266;52.608;13.260;2024-03-22T11:00:51;101011.00;;;14.80
71463;BMP180;59266;52.608;13.260;2024-03-22T11:03:21;101004.00;;;15.30
71463;BMP180;59266;52.608;13.260;2024-03-22T11:05:50;101001.00;;;15.40
71463;BMP180;59266;52.608;13.260;2024-03-22T11:08:29;101001.00;;;15.30
71463;BMP180;59266;52.608;13.260;2024-03-22T11:11:09;101008.00;;;14.90
71463;BMP180;59266;52.608;13.260;2024-03-22T11:13:36;101004.00;;;14.70
71463;BMP180;59266;52.608;13.260;2024-03-22T11:16:02;101007.00;;;14.40
71463;BMP180;59266;52.608;13.260;2024-03-22T11:18:28;101010.00;;;14.40
71463;BMP180;59266;52.608;13.260;2024-03-22T11:20:53;101007.00;;;14.60
71463;BMP180;59266;52.608;13.260;2024-03-22T11:23:19;101007.00;;;14.50
71463;BMP180;59266;52.608;13.260;2024-03-22T11:25:45;101011.00;;;14.60
71463;BMP180;59266;52.608;13.260;2024-03-22T11:28:11;101010.00;;;14.30
71463;BMP180;59266;52.608;13.260;2024-03-22T11:30:37;101010.00;;;14.00
71463;BMP180;59266;52.608;13.260;2024-03-22T11:33:04;100994.00;;;13.90
71463;BMP180;59266;52.608;13.260;2024-03-22T11:35:30;100995.00;;;13.80
71463;BMP180;59266;52.608;13.260;2024-03-22T11:37:57;100983.00;;;13.90
71463;BMP180;59266;52.608;13.260;2024-03-22T11:40:25;100986.00;;;13.60
71463;BMP180;59266;52.608;13.260;2024-03-22T11:42:52;100974.00;;;13.60
71463;BMP180;59266;52.608;13.260;2024-03-22T11:45:19;100967.00;;;13.80
71463;BMP180;59266;52.608;13.260;2024-03-22T11:47:46;100972.00;;;14.10
71463;BMP180;59266;52.608;13.260;2024-03-22T11:50:12;100982.00;;;13.90
71463;BMP180;59266;52.608;13.260;2024-03-22T11:52:41;100978.00;;;13.60
71463;BMP180;59266;52.608;13.260;2024-03-22T11:55:07;100975.00;;;13.50
71463;BMP180;59266;52.608;13.260;2024-03-22T11:57:33;100972.00;;;13.50
71463;BMP180;59266;52.608;13.260;2024-03-22T12:00:01;100962.00;;;13.50
71463;BMP180;59266;52.608;13.260;2024-03-22T12:02:33;100967.00;;;13.30
71463;BMP180;59266;52.608;13.260;2024-03-22T12:05:00;100966.00;;;13.10
71463;BMP180;59266;52.608;13.260;2024-03-22T12:07:28;100958.00;;;13.10
71463;BMP180;59266;52.608;13.260;2024-03-22T12:09:54;100953.00;;;13.10
71463;BMP180;59266;52.608;13.260;2024-03-22T12:12:21;100949.00;;;13.10
71463;BMP180;59266;52.608;13.260;2024-03-22T12:14:50;100942.00;;;13.00
71463;BMP180;59266;52.608;13.260;2024-03-22T12:17:17;100933.00;;;12.70
71463;BMP180;59266;52.608;13.260;2024-03-22T12:19:43;100939.00;;;12.70
71463;BMP180;59266;52.608;13.260;2024-03-22T12:22:17;100938.00;;;12.60
71463;BMP180;59266;52.608;13.260;2024-03-22T12:24:42;100941.00;;;12.70
71463;BMP180;59266;52.608;13.260;2024-03-22T12:27:08;100934.00;;;12.70
71463;BMP180;59266;52.608;13.260;2024-03-22T12:29:34;100942.00;;;12.60
71463;BMP180;59266;52.608;13.260;2024-03-22T12:32:02;100941.00;;;12.50
71463;BMP180;59266;52.608;13.260;2024-03-22T12:34:32;100941.00;;;12.70
71463;BMP180;59266;52.608;13.260;2024-03-22T12:36:59;100941.00;;;12.50
71463;BMP180;59266;52.608;13.260;2024-03-22T12:39:25;100932.00;;;12.50
71463;BMP180;59266;52.608;13.260;2024-03-22T12:41:53;100920.00;;;12.40
71463;BMP180;59266;52.608;13.260;2024-03-22T12:44:20;100916.00;;;12.40
71463;BMP180;59266;52.608;13.260;2024-03-22T12:46:46;100907.00;;;12.30
71463;BMP180;59266;52.608;13.260;2024-03-22T12:49:12;100908.00;;;12.30
71463;BMP180;59266;52.608;13.260;2024-03-22T12:51:38;100915.00;;;12.40
71463;BMP180;59266;52.608;13.260;2024-03-22T12:54:04;100915.00;;;12.30
71463;BMP180;59266;52.608;13.260;2024-03-22T12:56:31;100906.00;;;12.50
71463;BMP180;59266;52.608;13.260;2024-03-22T12:59:00;100906.00;;;12.20
71463;BMP180;59266;52.608;13.260;2024-03-22T13:01:26;100896.00;;;12.00
71463;BMP180;59266;52.608;13.260;2024-03-22T13:03:52;100896.00;;;12.00
71463;BMP180;59266;52.608;13.260;2024-03-22T13:06:17;100891.00;;;12.00
71463;BMP180;59266;52.608;13.260;2024-03-22T13:08:43;100879.00;;;12.30
71463;BMP180;59266;52.608;13.260;2024-03-22T13:11:09;100876.00;;;12.40
71463;BMP180;59266;52.608;13.260;2024-03-22T13:13:37;100871.00;;;12.50
71463;BMP180;59266;52.608;13.260;2024-03-22T13:16:04;100862.00;;;12.50
71463;BMP180;59266;52.608;13.260;2024-03-22T13:18:29;100864.00;;;12.50
71463;BMP180;59266;52.608;13.260;2024-03-22T13:20:55;100860.00;;;12.70
71463;BMP180;59266;52.608;13.260;2024-03-22T13:23:21;100850.00;;;12.80
71463;BMP180;59266;52.608;13.260;2024-03-22T13:25:47;100849.00;;;12.90
71463;BMP180;59266;52.608;13.260;2024-03-22T13:28:12;100850.00;;;12.70
71463;BMP180;59266;52.608;13.260;2024-03-22T13:30:38;100845.00;;;12.60
71463;BMP180;59266;52.608;13.260;2024-03-22T13:33:04;100839.00;;;12.70
71463;BMP180;59266;52.608;13.260;2024-03-22T13:35:29;100838.00;;;12.90
71463;BMP180;59266;52.608;13.260;2024-03-22T13:37:56;100834.00;;;12.70
71463;BMP180;59266;52.608;13.260;2024-03-22T13:40:21;100837.00;;;12.60
71463;BMP180;59266;52.608;13.260;2024-03-22T13:42:47;100828.00;;;12.40
71463;BMP180;59266;52.608;13.260;2024-03-22T13:45:12;100823.00;;;12.60
71463;BMP180;59266;52.608;13.260;2024-03-22T13:47:38;100827.00;;;12.50
71463;BMP180;59266;52.608;13.260;2024-03-22T13:50:07;100823.00;;;12.60